createdAt,value
2023-03-28T00:01:15.657Z,7.17
2023-03-28T00:03:43.738Z,5.00
2023-03-28T00:06:16.862Z,4.93
2023-03-28T00:08:45.846Z,6.40
2023-03-28T00:11:19.304Z,5.87
2023-03-28T00:13:48.488Z,8.43
2023-03-28T00:16:16.945Z,9.50
2023-03-28T00:18:45.200Z,7.13
2023-03-28T00:21:24.234Z,8.63
2023-03-28T00:23:53.708Z,4.80
2023-03-28T00:26:24.660Z,4.80
2023-03-28T00:28:52.993Z,8.40
2023-03-28T00:31:21.184Z,9.13
2023-03-28T00:33:49.432Z,3.13
2023-03-28T00:36:22.878Z,9.13
2023-03-28T00:38:53.922Z,6.90
2023-03-28T00:41:23.140Z,5.00
2023-03-28T00:43:52.884Z,10.70
2023-03-28T00:46:26.459Z,5.17
2023-03-28T00:48:58.291Z,6.30
2023-03-28T00:51:31.049Z,4.83
2023-03-28T00:54:03.200Z,3.87
2023-03-28T00:56:34.136Z,6.40
2023-03-28T00:59:06.758Z,5.70
2023-03-28T01:01:35.276Z,4.13
2023-03-28T01:04:03.729Z,7.13
2023-03-28T01:06:34.014Z,6.10
2023-03-28T01:09:08.038Z,8.33
2023-03-28T01:11:38.232Z,7.53
2023-03-28T01:14:07.470Z,9.50
2023-03-28T01:16:42.166Z,6.77
2023-03-28T01:19:26.734Z,7.87
2023-03-28T01:22:20.655Z,9.17
2023-03-28T01:25:29.822Z,8.77
2023-03-28T01:28:02.390Z,10.03
2023-03-28T01:30:57.521Z,12.93
2023-03-28T01:34:05.589Z,7.73
2023-03-28T01:36:59.421Z,11.23
2023-03-28T01:39:40.997Z,7.53
2023-03-28T01:42:16.328Z,8.00
2023-03-28T01:44:52.938Z,8.97
2023-03-28T01:47:28.545Z,6.00
2023-03-28T01:50:03.918Z,8.20
2023-03-28T01:52:37.586Z,6.83
2023-03-28T01:55:11.915Z,6.20
2023-03-28T01:57:45.000Z,6.13
2023-03-28T02:00:21.478Z,11.30
2023-03-28T02:02:53.822Z,10.63
2023-03-28T02:05:23.619Z,9.57
2023-03-28T02:07:54.678Z,9.00
2023-03-28T02:10:26.309Z,7.80
2023-03-28T02:13:00.344Z,6.53
2023-03-28T02:15:29.951Z,7.60
2023-03-28T02:18:04.280Z,8.03
2023-03-28T02:20:34.086Z,8.40
2023-03-28T02:23:08.057Z,5.80
2023-03-28T02:25:36.578Z,5.37
2023-03-28T02:28:08.204Z,9.40
2023-03-28T02:30:37.068Z,10.40
2023-03-28T02:33:08.637Z,13.63
2023-03-28T02:35:51.207Z,18.90
2023-03-28T02:38:28.862Z,19.60
2023-03-28T02:41:05.534Z,20.43
2023-03-28T02:44:01.005Z,16.83
2023-03-28T02:46:32.789Z,21.47
2023-03-28T02:49:21.550Z,33.33
2023-03-28T02:51:58.627Z,30.93
2023-03-28T02:54:34.851Z,27.47
2023-03-28T02:57:10.444Z,36.43
2023-03-28T02:59:44.353Z,36.30
2023-03-28T03:07:33.869Z,39.67
2023-03-28T03:10:03.699Z,38.70
2023-03-28T03:23:54.471Z,19.97
2023-03-28T03:26:23.952Z,45.50
2023-03-28T03:28:52.027Z,34.17
2023-03-28T03:31:20.191Z,42.57
2023-03-28T03:33:48.668Z,51.40
2023-03-28T03:36:17.876Z,40.07
2023-03-28T03:38:47.542Z,40.73
2023-03-28T03:41:15.904Z,40.70
2023-03-28T03:43:47.160Z,35.93
2023-03-28T03:46:15.682Z,37.00
2023-03-28T03:48:49.561Z,22.20
2023-03-28T03:51:18.364Z,12.93
2023-03-28T03:53:46.771Z,11.40
2023-03-28T03:56:14.969Z,13.17
2023-03-28T03:58:43.092Z,7.40
2023-03-28T04:01:14.278Z,7.00
2023-03-28T04:03:43.748Z,14.97
2023-03-28T04:06:11.965Z,6.80
2023-03-28T04:08:40.182Z,10.33
2023-03-28T04:11:10.561Z,7.73
2023-03-28T04:13:38.775Z,4.57
2023-03-28T04:16:07.753Z,8.03
2023-03-28T04:18:37.224Z,8.20
2023-03-28T04:21:05.567Z,10.70
2023-03-28T04:23:35.237Z,7.80
2023-03-28T04:26:03.846Z,9.27
2023-03-28T04:28:31.926Z,11.53
2023-03-28T04:31:00.199Z,8.27
2023-03-28T04:33:30.313Z,13.63
2023-03-28T04:36:02.122Z,7.43
2023-03-28T04:38:32.599Z,10.97
2023-03-28T04:41:00.966Z,10.87
2023-03-28T04:43:29.522Z,8.27
2023-03-28T04:45:58.858Z,7.20
2023-03-28T04:48:28.318Z,6.00
2023-03-28T04:50:56.576Z,9.40
2023-03-28T04:53:26.020Z,8.53
2023-03-28T04:55:54.149Z,6.33
2023-03-28T04:58:24.755Z,10.63
2023-03-28T05:00:54.144Z,11.00
2023-03-28T05:03:24.457Z,6.23
2023-03-28T05:05:53.834Z,8.57
2023-03-28T05:08:24.238Z,12.03
2023-03-28T05:10:55.176Z,7.27
2023-03-28T05:13:23.521Z,9.47
2023-03-28T05:15:51.584Z,7.87
2023-03-28T05:18:19.684Z,9.07
2023-03-28T05:20:47.764Z,6.70
2023-03-28T05:23:15.849Z,7.83
2023-03-28T05:25:44.192Z,9.77
2023-03-28T05:28:13.621Z,6.57
2023-03-28T05:30:41.785Z,13.27
2023-03-28T05:33:09.910Z,6.40
2023-03-28T05:35:38.157Z,8.50
2023-03-28T05:38:06.370Z,10.03
2023-03-28T05:40:34.476Z,8.67
2023-03-28T05:43:02.546Z,10.77
2023-03-28T05:45:32.026Z,10.40
2023-03-28T05:48:00.459Z,6.77
2023-03-28T05:50:28.614Z,15.53
2023-03-28T05:52:56.704Z,7.77
2023-03-28T05:55:24.768Z,10.47
2023-03-28T05:57:53.003Z,12.23
2023-03-28T06:00:23.408Z,7.07
2023-03-28T06:02:54.832Z,7.67
2023-03-28T06:05:23.939Z,12.67
2023-03-28T06:07:52.412Z,10.50
2023-03-28T06:10:21.104Z,11.10
2023-03-28T06:12:49.197Z,10.43
2023-03-28T06:15:17.499Z,3.43
2023-03-28T06:17:45.723Z,10.03
2023-03-28T06:20:15.325Z,9.53
2023-03-28T06:22:43.561Z,5.20
2023-03-28T06:25:11.810Z,8.20
2023-03-28T06:27:40.126Z,6.63
2023-03-28T06:30:09.546Z,4.30
2023-03-28T06:32:37.766Z,4.93
2023-03-28T06:35:06.588Z,3.57
2023-03-28T06:37:36.122Z,6.93
2023-03-28T06:40:04.545Z,4.90
2023-03-28T06:42:32.670Z,4.40
2023-03-28T06:45:00.753Z,6.60
2023-03-28T06:47:29.686Z,6.63
2023-03-28T06:49:57.837Z,4.97
2023-03-28T06:52:26.048Z,3.37
2023-03-28T06:54:55.950Z,6.43
2023-03-28T06:57:24.062Z,4.23
2023-03-28T06:59:52.605Z,4.77
2023-03-28T07:10:14.028Z,4.33
2023-03-28T07:12:42.130Z,6.95
2023-03-28T07:15:11.158Z,5.10
2023-03-28T07:17:39.266Z,3.90
2023-03-28T07:20:08.193Z,7.70
2023-03-28T07:22:36.280Z,9.03
2023-03-28T07:25:04.422Z,9.33
2023-03-28T07:27:33.897Z,7.63
2023-03-28T07:30:01.976Z,6.37
2023-03-28T07:32:35.731Z,6.50
2023-03-28T07:35:11.197Z,6.73
2023-03-28T07:37:39.354Z,6.67
2023-03-28T07:40:09.136Z,6.10
2023-03-28T07:42:38.633Z,5.70
2023-03-28T07:45:07.542Z,6.30
2023-03-28T07:47:35.695Z,5.03
2023-03-28T07:50:04.178Z,5.47
2023-03-28T07:52:32.216Z,7.13
2023-03-28T07:55:00.586Z,4.60
2023-03-28T07:57:28.692Z,7.40
2023-03-28T07:59:58.136Z,6.20
2023-03-28T08:02:26.344Z,7.15
2023-03-28T08:04:54.476Z,7.10
2023-03-28T08:07:22.622Z,5.70
2023-03-28T08:09:51.098Z,4.65
2023-03-28T08:12:19.645Z,4.25
2023-03-28T08:14:47.724Z,4.22
2023-03-28T08:17:17.173Z,6.18
2023-03-28T08:19:45.458Z,7.18
2023-03-28T08:22:13.641Z,4.65
2023-03-28T08:24:41.753Z,5.53
2023-03-28T08:27:09.999Z,7.32
2023-03-28T08:29:38.061Z,4.53
2023-03-28T08:32:07.525Z,3.42
2023-03-28T08:34:37.328Z,6.30
2023-03-28T08:37:05.789Z,6.32
2023-03-28T08:39:34.760Z,5.95
2023-03-28T08:42:27.798Z,5.60
2023-03-28T08:45:22.314Z,5.57
2023-03-28T08:48:01.493Z,5.17
2023-03-28T08:50:34.939Z,6.07
2023-03-28T08:53:04.727Z,5.60
2023-03-28T08:55:37.801Z,5.87
2023-03-28T08:58:07.134Z,9.33
2023-03-28T09:12:10.565Z,6.20
2023-03-28T09:15:07.712Z,4.97
2023-03-28T09:17:45.028Z,6.30
2023-03-28T09:20:21.324Z,6.57
2023-03-28T09:23:06.201Z,5.43
2023-03-28T09:25:42.755Z,5.23
2023-03-28T09:28:26.044Z,5.93
2023-03-28T09:30:54.822Z,4.67
2023-03-28T09:33:29.150Z,4.63
2023-03-28T09:35:58.238Z,4.23
2023-03-28T09:38:32.467Z,6.23
2023-03-28T09:41:03.890Z,3.70
2023-03-28T09:43:38.226Z,4.77
2023-03-28T09:46:08.656Z,6.00
2023-03-28T09:48:38.721Z,3.23
2023-03-28T09:51:08.702Z,5.10
2023-03-28T09:53:38.325Z,7.63
2023-03-28T09:56:13.973Z,6.53
2023-03-28T09:58:51.849Z,6.47
2023-03-28T10:01:32.838Z,3.53
2023-03-28T10:04:01.713Z,5.80
2023-03-28T10:06:32.147Z,7.47
2023-03-28T10:09:17.042Z,4.67
2023-03-28T10:11:51.098Z,6.67
2023-03-28T10:14:36.459Z,4.73
2023-03-28T10:17:07.642Z,6.07
2023-03-28T10:19:38.564Z,3.70
2023-03-28T10:22:09.341Z,3.77
2023-03-28T10:24:38.861Z,5.07
2023-03-28T10:27:18.313Z,5.47
2023-03-28T10:29:48.583Z,4.93
2023-03-28T10:32:26.073Z,4.13
2023-03-28T10:35:03.325Z,6.80
2023-03-28T10:37:33.475Z,3.90
2023-03-28T10:40:05.586Z,4.77
2023-03-28T10:42:44.902Z,4.17
2023-03-28T10:45:23.881Z,4.33
2023-03-28T10:47:55.693Z,1.73
2023-03-28T10:50:29.382Z,4.40
2023-03-28T10:53:22.375Z,6.40
2023-03-28T10:56:02.078Z,2.90
2023-03-28T10:58:36.150Z,4.97
2023-03-28T11:01:10.709Z,5.33
2023-03-28T11:03:58.286Z,2.27
2023-03-28T11:06:33.124Z,2.53
2023-03-28T11:09:06.656Z,5.90
2023-03-28T11:11:46.827Z,6.63
2023-03-28T11:14:26.747Z,4.77
2023-03-28T11:17:04.078Z,4.63
2023-03-28T11:19:47.727Z,4.37
2023-03-28T11:22:25.271Z,7.80
2023-03-28T11:25:03.943Z,6.17
2023-03-28T11:27:40.771Z,4.63
2023-03-28T11:30:14.695Z,4.77
2023-03-28T11:32:48.844Z,3.10
2023-03-28T11:35:26.509Z,3.63
2023-03-28T11:38:02.644Z,4.80
2023-03-28T11:40:35.576Z,4.00
2023-03-28T11:43:06.499Z,4.20
2023-03-28T11:45:51.439Z,3.97
2023-03-28T11:48:26.613Z,5.77
2023-03-28T11:51:03.698Z,6.53
2023-03-28T11:53:37.719Z,4.50
2023-03-28T11:56:14.342Z,2.40
2023-03-28T11:58:47.278Z,4.80
2023-03-28T12:01:19.474Z,3.53
2023-03-28T12:04:00.040Z,3.63
2023-03-28T12:06:33.929Z,5.90
2023-03-28T12:09:09.779Z,3.40
2023-03-28T12:11:42.301Z,3.83
2023-03-28T12:14:34.250Z,5.77
2023-03-28T12:17:05.716Z,4.00
2023-03-28T12:19:40.055Z,5.30
2023-03-28T12:22:14.125Z,3.23
2023-03-28T12:24:46.828Z,4.87
2023-03-28T12:27:25.444Z,6.83
2023-03-28T12:29:59.246Z,4.77
2023-03-28T12:32:46.672Z,4.70
2023-03-28T12:35:23.328Z,4.63
2023-03-28T12:38:06.750Z,3.83
2023-03-28T12:40:53.455Z,3.33
2023-03-28T12:43:27.237Z,4.57
2023-03-28T12:46:00.936Z,3.87
2023-03-28T12:48:37.310Z,6.57
2023-03-28T12:51:14.019Z,6.60
2023-03-28T12:53:47.035Z,4.93
2023-03-28T12:56:17.189Z,3.43
2023-03-28T12:58:48.864Z,3.10
2023-03-28T13:01:40.091Z,3.70
2023-03-28T13:04:17.466Z,3.93
2023-03-28T13:06:53.180Z,5.17
2023-03-28T13:09:33.964Z,16.97
2023-03-28T13:12:08.246Z,4.63
2023-03-28T13:14:38.498Z,3.73
2023-03-28T13:17:21.827Z,5.20
2023-03-28T13:19:53.753Z,10.77
2023-03-28T13:22:42.667Z,5.10
2023-03-28T13:25:26.229Z,8.37
2023-03-28T13:27:57.077Z,3.63
2023-03-28T13:30:26.588Z,4.50
2023-03-28T13:32:57.326Z,4.27
2023-03-28T13:35:47.275Z,8.77
2023-03-28T13:38:24.535Z,5.50
2023-03-28T13:40:55.891Z,5.27
2023-03-28T13:43:26.290Z,5.47
2023-03-28T13:45:59.570Z,4.43
2023-03-28T13:48:34.247Z,4.30
2023-03-28T13:51:06.859Z,5.17
2023-03-28T13:53:46.936Z,5.07
2023-03-28T13:56:26.344Z,4.20
2023-03-28T13:58:56.381Z,10.57
2023-03-28T14:01:26.988Z,7.00
2023-03-28T14:03:56.254Z,4.27
2023-03-28T14:06:26.696Z,4.07
2023-03-28T14:08:59.808Z,6.70
2023-03-28T14:11:43.993Z,5.67
2023-03-28T14:14:15.404Z,3.20
2023-03-28T14:16:45.130Z,3.93
2023-03-28T14:19:21.171Z,3.37
2023-03-28T14:21:50.134Z,6.43
2023-03-28T14:24:21.814Z,7.77
2023-03-28T14:26:51.955Z,4.70
2023-03-28T14:29:21.221Z,5.13
2023-03-28T14:31:49.698Z,6.93
2023-03-28T14:34:24.077Z,4.10
2023-03-28T14:36:59.381Z,9.17
2023-03-28T14:39:29.297Z,4.10
2023-03-28T14:42:00.762Z,4.63
2023-03-28T14:44:30.131Z,5.03
2023-03-28T14:46:59.077Z,3.40
2023-03-28T14:49:28.385Z,2.30
2023-03-28T14:51:59.849Z,5.90
2023-03-28T14:54:32.708Z,5.17
2023-03-28T14:57:04.947Z,29.93
2023-03-28T14:59:37.659Z,7.33
2023-03-28T15:02:06.805Z,9.40
2023-03-28T15:12:09.625Z,5.30
2023-03-28T15:14:43.785Z,8.17
2023-03-28T15:17:18.751Z,4.07
2023-03-28T15:19:50.591Z,3.67
2023-03-28T15:22:25.605Z,2.70
2023-03-28T15:24:54.088Z,5.43
2023-03-28T15:27:29.610Z,3.93
2023-03-28T15:29:58.130Z,3.90
2023-03-28T15:32:29.081Z,3.67
2023-03-28T15:35:02.072Z,3.00
2023-03-28T15:37:40.823Z,4.33
2023-03-28T15:40:29.457Z,4.37
2023-03-28T15:43:00.321Z,3.70
2023-03-28T15:45:50.790Z,3.50
2023-03-28T15:48:20.465Z,4.03
2023-03-28T15:50:53.807Z,4.20
2023-03-28T15:53:26.642Z,3.87
2023-03-28T15:55:55.066Z,4.33
2023-03-28T15:58:24.518Z,2.53
2023-03-28T16:00:53.864Z,3.37
2023-03-28T16:03:42.611Z,6.60
2023-03-28T16:06:30.989Z,3.77
2023-03-28T16:09:15.707Z,5.90
2023-03-28T16:11:44.760Z,5.03
2023-03-28T16:14:16.867Z,5.57
2023-03-28T16:16:45.449Z,4.23
2023-03-28T16:19:20.088Z,2.43
2023-03-28T16:21:48.672Z,4.77
2023-03-28T16:24:17.034Z,2.90
2023-03-28T16:26:45.444Z,5.43
2023-03-28T16:29:15.057Z,3.97
2023-03-28T16:31:43.771Z,6.80
2023-03-28T16:34:11.918Z,2.90
2023-03-28T16:36:40.266Z,3.97
2023-03-28T16:47:00.196Z,4.57
2023-03-28T16:49:28.656Z,3.50
2023-03-28T16:51:57.019Z,5.17
2023-03-28T16:54:25.424Z,5.97
2023-03-28T16:56:53.641Z,5.17
2023-03-28T16:59:22.022Z,6.07
2023-03-28T17:01:50.176Z,7.07
2023-03-28T17:04:19.689Z,6.90
2023-03-28T17:06:47.735Z,4.20
2023-03-28T17:09:16.096Z,4.13
2023-03-28T17:11:44.247Z,7.57
2023-03-28T17:14:12.295Z,3.60
2023-03-28T17:16:40.726Z,4.37
2023-03-28T17:19:08.982Z,5.17
2023-03-28T17:21:38.443Z,4.00
2023-03-28T17:24:11.287Z,6.80
2023-03-28T17:26:39.650Z,3.77
2023-03-28T17:29:09.664Z,4.70
2023-03-28T17:31:37.887Z,2.80
2023-03-28T17:34:06.698Z,2.93
2023-03-28T17:36:35.245Z,2.40
2023-03-28T17:39:05.992Z,1.63
2023-03-28T17:41:34.095Z,3.27
2023-03-28T17:44:02.327Z,3.37
2023-03-28T17:46:30.433Z,5.20
2023-03-28T17:48:58.909Z,2.97
2023-03-28T17:51:27.364Z,2.67
2023-03-28T17:57:37.717Z,3.60
2023-03-28T18:00:07.575Z,2.90
2023-03-28T18:02:35.758Z,1.83
2023-03-28T18:05:03.904Z,2.60
2023-03-28T18:07:31.973Z,2.40
2023-03-28T18:10:00.949Z,1.03
2023-03-28T18:12:29.237Z,2.00
2023-03-28T18:15:00.906Z,0.80
2023-03-28T18:17:29.622Z,1.50
2023-03-28T18:19:58.956Z,2.47
2023-03-28T18:22:27.520Z,2.00
2023-03-28T18:24:55.614Z,1.33
2023-03-28T18:27:23.730Z,2.87
2023-03-28T18:29:51.772Z,3.53
2023-03-28T18:32:21.239Z,3.80
2023-03-28T18:34:49.278Z,2.80
2023-03-28T18:37:17.622Z,1.57
2023-03-28T18:39:46.271Z,1.07
2023-03-28T18:42:14.316Z,2.17
2023-03-28T18:44:42.408Z,2.13
2023-03-28T18:47:10.729Z,2.60
2023-03-28T18:49:42.495Z,3.70
2023-03-28T18:52:10.764Z,2.93
2023-03-28T18:54:39.009Z,4.77
2023-03-28T18:57:07.122Z,1.50
2023-03-28T18:59:35.406Z,3.90
2023-03-28T19:02:03.594Z,2.60
2023-03-28T19:04:33.235Z,2.30
2023-03-28T19:07:03.486Z,1.70
2023-03-28T19:09:31.566Z,2.70
2023-03-28T19:12:00.656Z,3.60
2023-03-28T19:14:28.874Z,3.37
2023-03-28T19:16:57.085Z,2.53
2023-03-28T19:19:25.915Z,2.93
2023-03-28T19:29:37.384Z,4.10
2023-03-28T19:32:05.791Z,4.00
2023-03-28T19:34:34.002Z,3.63
2023-03-28T19:37:02.380Z,3.70
2023-03-28T19:39:30.478Z,2.37
2023-03-28T19:41:58.633Z,5.60
2023-03-28T19:44:26.704Z,2.73
2023-03-28T19:46:56.229Z,2.67
2023-03-28T19:49:24.530Z,2.93
2023-03-28T19:51:52.984Z,2.90
2023-03-28T19:54:21.584Z,4.13
2023-03-28T19:56:49.741Z,3.43
2023-03-28T19:59:17.898Z,1.90
2023-03-28T20:01:46.427Z,3.80
2023-03-28T20:04:16.133Z,4.27
2023-03-28T20:06:44.228Z,3.23
2023-03-28T20:09:12.531Z,2.23
2023-03-28T20:11:42.081Z,6.23
2023-03-28T20:14:10.285Z,3.87
2023-03-28T20:16:38.439Z,3.00
2023-03-28T20:19:06.837Z,4.73
2023-03-28T20:21:36.541Z,5.57
2023-03-28T20:24:05.160Z,3.33
2023-03-28T20:26:33.449Z,2.50
2023-03-28T20:29:01.570Z,3.20
2023-03-28T20:31:30.355Z,3.40
2023-03-28T20:33:58.817Z,3.10
2023-03-28T20:36:27.104Z,3.97
2023-03-28T20:38:56.564Z,4.63
2023-03-28T20:41:25.998Z,3.83
2023-03-28T20:43:55.234Z,5.87
2023-03-28T20:46:23.748Z,3.10
2023-03-28T20:48:54.579Z,4.47
2023-03-28T20:51:23.606Z,5.07
2023-03-28T20:53:54.438Z,2.83
2023-03-28T20:56:24.848Z,5.57
2023-03-28T20:58:53.220Z,2.20
2023-03-28T21:01:25.469Z,3.40
2023-03-28T21:03:54.807Z,4.60
2023-03-28T21:06:26.105Z,4.30
2023-03-28T21:08:55.893Z,5.00
2023-03-28T21:11:27.764Z,4.23
2023-03-28T21:13:56.674Z,3.13
2023-03-28T21:24:30.084Z,2.63
2023-03-28T21:26:59.501Z,3.17
2023-03-28T21:29:27.631Z,2.70
2023-03-28T21:31:56.078Z,2.30
2023-03-28T21:34:30.545Z,3.10
2023-03-28T21:36:58.633Z,2.43
2023-03-28T21:39:27.134Z,1.80
2023-03-28T21:41:55.734Z,3.23
2023-03-28T21:44:25.381Z,2.63
2023-03-28T21:46:53.502Z,6.17
2023-03-28T21:49:21.644Z,3.33
2023-03-28T21:51:49.791Z,2.00
2023-03-28T21:54:17.842Z,3.43
2023-03-28T21:56:46.203Z,3.33
2023-03-28T21:59:14.381Z,2.70
2023-03-28T22:01:43.880Z,2.43
2023-03-28T22:04:11.941Z,3.47
2023-03-28T22:06:40.057Z,2.47
2023-03-28T22:09:08.141Z,5.00
2023-03-28T22:11:36.313Z,1.83
2023-03-28T22:14:05.394Z,3.80
2023-03-28T22:16:37.449Z,1.80
2023-03-28T22:19:08.571Z,3.53
2023-03-28T22:21:37.503Z,3.57
2023-03-28T22:24:10.322Z,2.93
2023-03-28T22:26:38.402Z,2.33
2023-03-28T22:29:06.511Z,3.73
2023-03-28T22:31:34.710Z,3.60
2023-03-28T22:34:02.837Z,3.50
2023-03-28T22:36:32.298Z,4.13
2023-03-28T22:39:00.583Z,6.37
2023-03-28T22:41:31.650Z,3.53
2023-03-28T22:43:59.861Z,2.97
2023-03-28T22:46:27.972Z,5.47
2023-03-28T22:48:58.581Z,6.30
2023-03-28T22:51:27.952Z,5.07
2023-03-28T22:54:01.789Z,3.23
2023-03-28T22:56:29.945Z,6.60
2023-03-28T22:59:01.296Z,6.17
2023-03-28T23:01:30.168Z,8.20
2023-03-28T23:03:58.629Z,9.43
2023-03-28T23:06:27.184Z,5.07
2023-03-28T23:08:55.259Z,5.37
2023-03-28T23:11:24.704Z,3.70
2023-03-28T23:13:52.799Z,6.50
2023-03-28T23:16:20.986Z,3.70
2023-03-28T23:18:49.984Z,4.63
2023-03-28T23:21:18.765Z,4.30
2023-03-28T23:23:47.473Z,7.10
2023-03-28T23:26:15.682Z,4.57
2023-03-28T23:28:45.758Z,4.33
2023-03-28T23:31:13.941Z,4.17
2023-03-28T23:33:42.224Z,2.87
2023-03-28T23:36:11.949Z,3.77
2023-03-28T23:38:40.432Z,3.27
2023-03-28T23:41:09.293Z,2.37
2023-03-28T23:43:37.351Z,3.53
2023-03-28T23:46:07.936Z,4.50
2023-03-28T23:48:37.036Z,4.63
2023-03-28T23:51:05.381Z,4.10
2023-03-28T23:53:33.436Z,5.10
2023-03-28T23:56:03.483Z,3.10
2023-03-28T23:58:31.663Z,2.70
